Time;durP1;ratioP1;P1;durP2;ratioP2;P2;SDS_P1;SDS_P2;PMS_P1;PMS_P2;Temp;Humidity;BMP_temperature;BMP_pressure;BME280_temperature;BME280_humidity;BME280_pressure;Samples;Min_cycle;Max_cycle;Signal;HPM_P1;HPM_P2
2023/04/24 00:00:15;;;;;;;4.18;2.67;;;;;;;9.18;nan;99801.88;4992585;28;20036;-47
2023/04/24 00:02:46;;;;;;;4.72;2.30;;;;;;;8.82;nan;99727.31;4991313;28;20038;-52
2023/04/24 00:05:12;;;;;;;3.97;2.58;;;;;;;9.26;nan;99810.25;4993104;28;20422;-51
2023/04/24 00:07:37;;;;;;;4.22;2.22;;;;;;;9.25;nan;99791.97;4991270;28;20129;-48
2023/04/24 00:10:03;;;;;;;2.42;1.83;;;;;;;8.86;nan;99732.38;4992648;28;20125;-48
2023/04/24 00:12:28;;;;;;;5.38;2.20;;;;;;;9.22;nan;99799.97;4991749;28;20517;-48
2023/04/24 00:14:54;;;;;;;4.82;2.22;;;;;;;9.13;nan;99787.25;4992790;28;20182;-49
2023/04/24 00:17:22;;;;;;;2.38;2.08;;;;;;;9.22;nan;99797.34;4992412;28;20125;-47
2023/04/24 00:19:50;;;;;;;7.50;2.22;;;;;;;8.83;nan;99739.53;4992529;28;20049;-53
2023/04/24 00:22:15;;;;;;;5.53;2.67;;;;;;;8.81;nan;99742.25;5007416;28;20034;-48
2023/04/24 00:24:41;;;;;;;5.60;2.72;;;;;;;9.22;nan;99810.47;4992287;28;20425;-47
2023/04/24 00:27:06;;;;;;;4.78;2.65;;;;;;;9.23;nan;99812.16;4992471;28;20066;-46
2023/04/24 00:29:31;;;;;;;6.68;2.70;;;;;;;9.05;nan;99784.94;5007358;28;20105;-45
2023/04/24 00:31:57;;;;;;;4.28;2.90;;;;;;;8.91;nan;99759.28;4991678;28;20027;-48
2023/04/24 00:34:22;;;;;;;6.35;2.80;;;;;;;9.22;nan;99813.09;4991021;28;20117;-46
2023/04/24 00:36:50;;;;;;;5.00;3.00;;;;;;;8.89;nan;99744.53;4992229;28;20049;-48
2023/04/24 00:39:15;;;;;;;3.17;2.65;;;;;;;9.08;nan;99779.53;4991183;28;20062;-48
2023/04/24 00:41:41;;;;;;;6.03;2.42;;;;;;;9.16;nan;99798.47;4992444;28;20139;-46
2023/04/24 00:44:07;;;;;;;6.32;2.83;;;;;;;8.77;nan;99743.28;4992606;28;20038;-48
2023/04/24 00:46:32;;;;;;;3.30;2.58;;;;;;;9.05;nan;99792.81;4992041;28;20041;-46
2023/04/24 00:48:59;;;;;;;3.47;2.20;;;;;;;9.10;nan;99787.38;4996119;28;20065;-46
2023/04/24 00:51:24;;;;;;;3.22;2.17;;;;;;;9.16;nan;99803.72;4995802;28;20039;-47
2023/04/24 00:53:50;;;;;;;2.53;2.00;;;;;;;9.13;nan;99795.13;4996205;28;20038;-47
2023/04/24 00:56:16;;;;;;;4.22;2.50;;;;;;;9.07;nan;99792.75;4996242;28;20042;-47
2023/04/24 00:58:42;;;;;;;2.95;2.47;;;;;;;9.00;nan;99782.50;4994770;28;20045;-52
2023/04/24 01:01:07;;;;;;;3.00;2.20;;;;;;;9.13;nan;99806.47;5011305;28;20038;-46
2023/04/24 01:03:33;;;;;;;4.25;2.10;;;;;;;9.08;nan;99802.34;4995323;28;20030;-46
2023/04/24 01:05:59;;;;;;;6.57;2.40;;;;;;;9.08;nan;99813.66;4995720;28;20045;-48
2023/04/24 01:08:25;;;;;;;4.03;2.22;;;;;;;9.09;nan;99804.03;4994581;28;20073;-49
2023/04/24 01:10:53;;;;;;;4.00;2.15;;;;;;;8.80;nan;99755.41;5011164;28;20089;-50
2023/04/24 01:13:20;;;;;;;5.78;2.70;;;;;;;9.07;nan;99813.75;4994703;28;20077;-49
2023/04/24 01:15:46;;;;;;;4.50;2.50;;;;;;;9.14;nan;99805.53;4994342;28;20066;-48
2023/04/24 01:18:11;;;;;;;6.05;2.20;;;;;;;8.82;nan;99756.19;4995770;28;20520;-49
2023/04/24 01:20:39;;;;;;;3.97;2.15;;;;;;;9.10;nan;99796.09;4994770;28;20063;-46
2023/04/24 01:23:05;;;;;;;4.95;2.35;;;;;;;9.12;nan;99809.16;4994371;28;20629;-46
2023/04/24 01:25:31;;;;;;;7.75;2.78;;;;;;;8.48;nan;99712.16;4994188;28;20041;-47
2023/04/24 01:27:57;;;;;;;5.40;2.33;;;;;;;9.11;nan;99805.66;4994516;28;20335;-49
2023/04/24 01:30:22;;;;;;;6.38;2.90;;;;;;;9.14;nan;99821.28;4995557;28;20042;-46
2023/04/24 01:32:48;;;;;;;3.65;2.70;;;;;;;9.12;nan;99811.78;4995070;28;20038;-46
2023/04/24 01:35:13;;;;;;;5.22;2.33;;;;;;;9.07;nan;99798.00;4993259;28;20031;-51
2023/04/24 01:37:39;;;;;;;5.95;2.95;;;;;;;9.16;nan;99808.97;5010285;28;20121;-48
2023/04/24 01:40:07;;;;;;;2.75;2.33;;;;;;;9.15;nan;99806.41;4995579;28;20062;-50
2023/04/24 01:42:34;;;;;;;3.00;2.45;;;;;;;9.11;nan;99804.84;5010446;28;20133;-52
2023/04/24 01:44:59;;;;;;;3.60;2.00;;;;;;;9.13;nan;99808.25;4995374;28;20030;-47
2023/04/24 01:47:25;;;;;;;3.72;2.78;;;;;;;8.77;nan;99752.91;4995250;28;20538;-50
2023/04/24 01:49:50;;;;;;;6.82;2.65;;;;;;;9.10;nan;99809.22;4995091;28;20030;-48
2023/04/24 01:52:17;;;;;;;4.35;2.80;;;;;;;9.08;nan;99804.97;4992983;28;20034;-53
2023/04/24 01:54:43;;;;;;;3.42;2.70;;;;;;;8.71;nan;99745.28;5009770;28;20551;-49
2023/04/24 01:57:08;;;;;;;6.10;2.38;;;;;;;9.08;nan;99808.44;4994900;28;20035;-51
2023/04/24 01:59:34;;;;;;;2.83;2.20;;;;;;;8.70;nan;99741.81;4994305;28;20034;-46
2023/04/24 02:02:00;;;;;;;4.35;2.47;;;;;;;9.07;nan;99812.00;4994768;28;20442;-49
2023/04/24 02:04:25;;;;;;;4.10;2.13;;;;;;;8.55;nan;99718.88;4994919;28;20037;-48
2023/04/24 02:06:51;;;;;;;4.97;2.03;;;;;;;8.97;nan;99797.53;4994742;28;20030;-48
2023/04/24 02:09:16;;;;;;;5.47;2.50;;;;;;;8.66;nan;99747.25;4993919;28;20037;-49
2023/04/24 02:11:41;;;;;;;4.03;2.30;;;;;;;8.72;nan;99754.88;4994699;28;20034;-48
2023/04/24 02:14:07;;;;;;;7.70;3.10;;;;;;;8.93;nan;99788.09;4994771;28;20031;-48
2023/04/24 02:16:32;;;;;;;5.47;2.88;;;;;;;8.94;nan;99793.28;4995117;28;20066;-49
2023/04/24 02:18:58;;;;;;;5.18;3.15;;;;;;;8.94;nan;99801.16;4994726;28;20489;-47
2023/04/24 02:21:23;;;;;;;4.85;2.80;;;;;;;8.89;nan;99791.75;4994308;28;20049;-46
2023/04/24 02:23:48;;;;;;;9.32;4.05;;;;;;;8.98;nan;99802.72;5008579;28;20097;-48
2023/04/24 02:26:15;;;;;;;3.67;2.58;;;;;;;8.60;nan;99737.88;4994570;28;20034;-47
2023/04/24 02:28:40;;;;;;;5.60;2.70;;;;;;;8.55;nan;99726.75;4993208;28;20039;-48
2023/04/24 02:31:06;;;;;;;5.53;2.35;;;;;;;8.53;nan;99730.31;4993015;28;20362;-48
2023/04/24 02:33:31;;;;;;;4.18;1.95;;;;;;;8.87;nan;99785.72;4994312;28;20039;-48
2023/04/24 02:35:56;;;;;;;1.88;1.48;;;;;;;8.88;nan;99788.28;4994050;28;20397;-47
2023/04/24 02:38:22;;;;;;;3.70;1.95;;;;;;;8.63;nan;99739.53;4994066;28;20035;-52
2023/04/24 02:40:47;;;;;;;3.63;1.80;;;;;;;8.88;nan;99784.78;4993819;28;20030;-50
2023/04/24 02:43:12;;;;;;;2.65;1.50;;;;;;;8.81;nan;99772.88;4994272;28;20038;-48
2023/04/24 02:45:38;;;;;;;1.90;1.30;;;;;;;8.62;nan;99746.53;4992843;28;20474;-47
2023/04/24 02:48:03;;;;;;;1.40;1.05;;;;;;;8.44;nan;99723.69;4993806;28;20038;-50
2023/04/24 02:50:29;;;;;;;2.70;1.10;;;;;;;8.83;nan;99792.88;4993950;28;20034;-51
2023/04/24 02:52:54;;;;;;;3.15;1.00;;;;;;;8.38;nan;99716.94;4994205;28;20031;-47
2023/04/24 02:55:19;;;;;;;1.60;1.23;;;;;;;8.45;nan;99728.03;4993811;28;20034;-53
2023/04/24 02:57:45;;;;;;;3.42;1.30;;;;;;;8.53;nan;99749.53;4992956;28;20129;-47
2023/04/24 03:00:11;;;;;;;2.15;1.10;;;;;;;8.81;nan;99794.72;4993754;28;20473;-46
2023/04/24 03:02:36;;;;;;;2.78;1.50;;;;;;;8.80;nan;99803.50;4993785;28;20355;-50
2023/04/24 03:05:02;;;;;;;4.82;1.35;;;;;;;8.83;nan;99799.88;4993450;28;20041;-48
2023/04/24 03:07:27;;;;;;;2.85;1.27;;;;;;;8.81;nan;99804.34;4993685;28;20081;-52
2023/04/24 03:09:52;;;;;;;2.85;1.40;;;;;;;8.78;nan;99810.59;4993347;28;20052;-47
2023/04/24 03:12:18;;;;;;;1.80;1.00;;;;;;;8.78;nan;99814.97;4992314;28;20039;-50
2023/04/24 03:14:43;;;;;;;1.92;0.77;;;;;;;8.06;nan;99729.59;4992400;28;20038;-47
2023/04/24 03:17:09;;;;;;;3.15;0.80;;;;;;;8.68;nan;99817.13;5008537;28;20121;-49
2023/04/24 03:19:34;;;;;;;1.13;0.73;;;;;;;8.67;nan;99822.44;4993292;28;20046;-50
2023/04/24 03:22:02;;;;;;;0.68;0.57;;;;;;;8.61;nan;99825.31;5008608;28;20478;-48
2023/04/24 03:24:27;;;;;;;1.88;0.82;;;;;;;8.61;nan;99817.44;4993590;28;20030;-48
2023/04/24 03:26:53;;;;;;;2.80;0.80;;;;;;;8.52;nan;99817.81;4992732;28;20532;-48
2023/04/24 03:29:18;;;;;;;1.45;0.70;;;;;;;8.45;nan;99804.94;5008412;28;20390;-47
2023/04/24 03:31:43;;;;;;;0.93;0.75;;;;;;;8.12;nan;99752.94;4993554;28;20125;-51
2023/04/24 03:34:09;;;;;;;3.13;1.20;;;;;;;8.51;nan;99824.81;4993046;28;20055;-48
2023/04/24 03:36:35;;;;;;;4.03;1.20;;;;;;;8.53;nan;99822.97;5008409;28;20045;-48
2023/04/24 03:39:00;;;;;;;3.97;1.08;;;;;;;8.17;nan;99758.88;4993096;28;20034;-48
2023/04/24 03:41:25;;;;;;;3.38;1.08;;;;;;;8.28;nan;99777.69;4993248;28;20034;-50
2023/04/24 03:43:51;;;;;;;4.15;1.20;;;;;;;8.56;nan;99828.09;4992320;28;20038;-51
2023/04/24 03:46:16;;;;;;;6.30;1.20;;;;;;;8.49;nan;99798.63;4992018;28;20401;-48
2023/04/24 03:48:41;;;;;;;3.50;1.20;;;;;;;8.15;nan;99748.44;4993041;28;20062;-48
2023/04/24 03:51:07;;;;;;;1.85;0.88;;;;;;;8.58;nan;99828.06;4992778;28;20050;-46
2023/04/24 03:53:32;;;;;;;3.05;1.38;;;;;;;8.55;nan;99821.16;4992887;28;20483;-49
2023/04/24 03:55:57;;;;;;;4.18;1.45;;;;;;;8.52;nan;99826.53;4993002;28;20034;-47
2023/04/24 03:58:23;;;;;;;2.22;1.23;;;;;;;8.32;nan;99790.59;4991507;28;20089;-54
2023/04/24 04:00:49;;;;;;;2.72;1.17;;;;;;;8.21;nan;99769.16;4992180;28;20049;-52
2023/04/24 04:03:14;;;;;;;3.83;1.40;;;;;;;8.56;nan;99824.63;4992848;28;20058;-48
2023/04/24 04:05:40;;;;;;;5.13;1.50;;;;;;;8.60;nan;99831.47;4992782;28;20061;-50
2023/04/24 04:08:05;;;;;;;2.35;1.50;;;;;;;8.31;nan;99775.78;4975205;28;20042;-49
2023/04/24 04:10:31;;;;;;;3.95;1.50;;;;;;;8.49;nan;99814.38;4975468;28;20030;-50
2023/04/24 04:12:56;;;;;;;5.13;1.42;;;;;;;8.17;nan;99761.50;5007989;28;20073;-51
2023/04/24 04:15:21;;;;;;;2.63;1.50;;;;;;;8.67;nan;99839.00;4991458;28;20407;-51
2023/04/24 04:17:47;;;;;;;10.68;2.00;;;;;;;8.27;nan;99771.56;4990037;28;20082;-47
2023/04/24 04:20:13;;;;;;;4.47;1.50;;;;;;;8.33;nan;99784.44;4992717;28;20062;-48
2023/04/24 04:22:38;;;;;;;5.07;2.25;;;;;;;8.62;nan;99842.72;4997308;28;20117;-49
2023/04/24 04:25:04;;;;;;;8.63;2.33;;;;;;;8.59;nan;99856.81;4998935;28;20157;-49
2023/04/24 04:27:31;;;;;;;5.88;2.03;;;;;;;8.61;nan;99852.38;4998832;28;20080;-48
2023/04/24 04:30:07;;;;;;;8.07;2.88;;;;;;;8.67;nan;99862.63;4999040;28;20088;-49
2023/04/24 04:32:35;;;;;;;6.57;3.53;;;;;;;8.37;nan;99819.25;5013342;28;20066;-48
2023/04/24 04:35:04;;;;;;;5.55;2.95;;;;;;;8.45;nan;99852.13;4997811;28;20069;-47
2023/04/24 04:37:31;;;;;;;9.82;3.88;;;;;;;8.39;nan;99851.50;4998576;28;20034;-50
2023/04/24 04:39:57;;;;;;;7.80;4.95;;;;;;;8.18;nan;99826.94;4999041;28;20030;-47
2023/04/24 04:42:23;;;;;;;10.50;5.20;;;;;;;7.81;nan;99792.56;4998827;28;20378;-50
2023/04/24 04:44:50;;;;;;;10.25;6.57;;;;;;;8.48;nan;99911.47;4998902;28;20034;-49
2023/04/24 04:47:16;;;;;;;11.75;6.43;;;;;;;8.42;nan;99920.44;5013627;28;20046;-50
2023/04/24 04:49:41;;;;;;;12.20;7.10;;;;;;;8.39;nan;99922.31;4997904;28;20186;-53
2023/04/24 04:52:06;;;;;;;11.88;6.78;;;;;;;7.98;nan;99863.53;4995856;28;20046;-48
2023/04/24 04:54:32;;;;;;;15.32;7.72;;;;;;;8.36;nan;99939.03;4997688;28;20038;-49
2023/04/24 04:56:57;;;;;;;15.45;6.95;;;;;;;7.94;nan;99868.03;4995987;28;20049;-49
2023/04/24 04:59:23;;;;;;;10.10;5.95;;;;;;;8.29;nan;99949.81;4993840;28;20038;-50
2023/04/24 05:01:48;;;;;;;10.63;6.90;;;;;;;7.90;nan;99892.66;4994402;28;20073;-48
2023/04/24 05:04:14;;;;;;;18.10;9.27;;;;;;;7.85;nan;99896.38;4996047;28;20481;-52
2023/04/24 05:06:39;;;;;;;24.92;13.05;;;;;;;8.25;nan;99971.75;4996477;28;20038;-49
2023/04/24 05:09:04;;;;;;;27.80;16.15;;;;;;;8.13;nan;99965.19;4998584;28;20060;-47
2023/04/24 05:11:30;;;;;;;26.45;16.55;;;;;;;8.05;nan;99985.59;4998612;28;20276;-47
2023/04/24 05:13:55;;;;;;;37.10;20.05;;;;;;;8.04;nan;99981.25;4999096;28;20030;-47
2023/04/24 05:16:21;;;;;;;32.22;20.48;;;;;;;7.93;nan;99986.03;4996547;28;20093;-48
2023/04/24 05:18:46;;;;;;;34.17;19.40;;;;;;;7.95;nan;100007.78;4997096;28;20129;-46
2023/04/24 05:21:12;;;;;;;39.75;19.65;;;;;;;7.51;nan;99930.72;4997689;28;20026;-48
2023/04/24 05:23:37;;;;;;;31.52;17.63;;;;;;;7.92;nan;100023.59;4996920;28;20486;-47
2023/04/24 05:26:02;;;;;;;30.48;17.80;;;;;;;7.58;nan;99962.81;4995815;28;20030;-48
2023/04/24 05:28:28;;;;;;;31.00;17.52;;;;;;;7.95;nan;100031.38;4992864;28;20038;-47
2023/04/24 05:30:55;;;;;;;32.92;16.75;;;;;;;7.93;nan;100043.66;4995219;28;20030;-49
2023/04/24 05:33:22;;;;;;;30.52;16.08;;;;;;;7.62;nan;99993.19;4995059;28;20055;-49
2023/04/24 05:35:47;;;;;;;24.98;15.73;;;;;;;7.88;nan;100050.84;4994398;28;20044;-47
2023/04/24 05:38:13;;;;;;;29.30;16.20;;;;;;;7.76;nan;100041.59;4977077;28;20129;-47
2023/04/24 05:40:38;;;;;;;25.48;14.93;;;;;;;7.84;nan;100073.66;4980928;28;20043;-47
2023/04/24 05:43:04;;;;;;;24.80;14.88;;;;;;;7.46;nan;100019.06;4975103;28;20038;-47
2023/04/24 05:45:29;;;;;;;33.80;15.20;;;;;;;7.75;nan;100075.72;4988382;28;20054;-49
2023/04/24 05:47:54;;;;;;;26.90;15.73;;;;;;;7.83;nan;100094.66;4994537;28;20058;-47
2023/04/24 05:50:20;;;;;;;29.90;16.40;;;;;;;7.50;nan;100038.16;4994868;28;20064;-47
2023/04/24 05:52:45;;;;;;;28.52;14.55;;;;;;;7.82;nan;100106.91;4995042;28;20289;-49
2023/04/24 05:55:11;;;;;;;19.45;13.20;;;;;;;7.79;nan;100101.75;4994636;28;20089;-46
2023/04/24 05:57:36;;;;;;;22.77;14.95;;;;;;;7.56;nan;100074.63;4994950;28;20045;-47
2023/04/24 06:00:03;;;;;;;30.60;14.18;;;;;;;7.48;nan;100067.00;4993529;28;20037;-48
2023/04/24 06:02:32;;;;;;;30.10;14.63;;;;;;;7.79;nan;100101.75;4995046;28;20034;-47
2023/04/24 06:04:58;;;;;;;26.77;13.32;;;;;;;7.87;nan;100133.84;4994813;28;20474;-49
2023/04/24 06:07:25;;;;;;;27.88;11.25;;;;;;;7.90;nan;100144.22;4994821;28;20474;-49
2023/04/24 06:09:51;;;;;;;33.15;11.80;;;;;;;7.91;nan;100145.03;4994684;28;20609;-47
2023/04/24 06:12:16;;;;;;;32.97;11.00;;;;;;;7.84;nan;100154.88;4994696;28;20065;-47
2023/04/24 06:14:41;;;;;;;34.15;11.07;;;;;;;7.84;nan;100174.97;4994533;28;20062;-46
2023/04/24 06:17:07;;;;;;;30.40;10.23;;;;;;;7.80;nan;100160.25;4994416;28;20034;-47
2023/04/24 06:19:32;;;;;;;34.05;11.18;;;;;;;7.47;nan;100114.19;4994497;28;20081;-47
2023/04/24 06:21:57;;;;;;;26.85;10.65;;;;;;;7.77;nan;100182.16;4994652;28;20040;-48
2023/04/24 06:24:27;;;;;;;21.25;8.38;;;;;;;7.43;nan;100141.38;4994492;28;20030;-48
2023/04/24 06:26:52;;;;;;;27.80;8.57;;;;;;;7.76;nan;100200.56;4994540;28;20038;-47
2023/04/24 06:29:17;;;;;;;29.98;9.25;;;;;;;7.80;nan;100196.94;4994165;28;20370;-51
2023/04/24 06:31:43;;;;;;;24.42;8.70;;;;;;;7.80;nan;100200.41;4994541;28;20043;-51
2023/04/24 06:34:08;;;;;;;28.73;7.55;;;;;;;7.78;nan;100215.34;4994240;28;20061;-48
2023/04/24 06:36:35;;;;;;;33.22;9.75;;;;;;;7.80;nan;100220.50;4994163;28;20295;-47
2023/04/24 06:39:01;;;;;;;26.50;7.43;;;;;;;7.78;nan;100227.56;4992914;28;20046;-49
2023/04/24 06:41:26;;;;;;;19.75;6.72;;;;;;;7.79;nan;100222.28;4994246;28;20030;-49
2023/04/24 06:43:51;;;;;;;19.48;6.82;;;;;;;7.44;nan;100167.50;4994088;28;20121;-50
2023/04/24 06:46:17;;;;;;;21.27;7.00;;;;;;;7.46;nan;100178.78;4993950;28;20035;-48
2023/04/24 06:48:42;;;;;;;18.20;6.80;;;;;;;7.78;nan;100240.69;4994027;28;20094;-47
2023/04/24 06:51:07;;;;;;;19.20;6.53;;;;;;;7.44;nan;100192.84;4992733;28;20035;-49
2023/04/24 06:53:33;;;;;;;19.27;6.60;;;;;;;7.84;nan;100254.44;4993974;28;20113;-47
2023/04/24 06:55:58;;;;;;;21.02;6.53;;;;;;;7.51;nan;100210.06;4993807;28;20121;-48
2023/04/24 06:58:25;;;;;;;20.23;6.13;;;;;;;7.73;nan;100258.31;4993811;28;20146;-46
2023/04/24 07:00:50;;;;;;;18.55;5.72;;;;;;;7.90;nan;100279.63;4994002;28;20038;-46
2023/04/24 07:03:15;;;;;;;24.83;5.57;;;;;;;7.89;nan;100299.72;4992518;28;20031;-47
2023/04/24 07:05:41;;;;;;;26.42;6.97;;;;;;;7.65;nan;100241.94;4993723;28;20042;-48
2023/04/24 07:08:07;;;;;;;24.35;6.35;;;;;;;7.82;nan;100284.22;4993612;28;20375;-46
2023/04/24 07:10:35;;;;;;;20.77;5.85;;;;;;;7.47;nan;100226.78;4993734;28;20092;-47
2023/04/24 07:13:01;;;;;;;23.63;6.10;;;;;;;7.45;nan;100246.91;4992285;28;20040;-46
2023/04/24 07:15:26;;;;;;;22.80;5.72;;;;;;;7.71;nan;100288.91;4993408;28;20026;-50
2023/04/24 07:17:52;;;;;;;26.55;5.78;;;;;;;7.40;nan;100235.72;4993441;28;20401;-49
2023/04/24 07:20:17;;;;;;;19.15;7.05;;;;;;;7.47;nan;100255.59;4993394;28;20035;-47
2023/04/24 07:22:43;;;;;;;24.20;6.10;;;;;;;7.75;nan;100301.03;4993541;28;20034;-47
2023/04/24 07:25:08;;;;;;;19.02;5.07;;;;;;;7.85;nan;100329.50;4993123;28;20085;-48
2023/04/24 07:27:35;;;;;;;22.70;5.22;;;;;;;7.51;nan;100271.16;4993183;28;20382;-47
2023/04/24 07:30:01;;;;;;;16.05;4.20;;;;;;;7.91;nan;100344.19;4992340;28;20034;-47
2023/04/24 07:32:26;;;;;;;19.13;4.68;;;;;;;7.95;nan;100351.06;4993376;28;20041;-48
2023/04/24 07:34:52;;;;;;;14.18;3.83;;;;;;;7.89;nan;100317.19;4992952;28;20050;-46
2023/04/24 07:37:17;;;;;;;12.02;3.88;;;;;;;8.11;nan;100343.63;4992878;28;20141;-50
2023/04/24 07:39:42;;;;;;;12.95;3.47;;;;;;;8.09;nan;100335.78;4993103;28;20038;-48
2023/04/24 07:42:08;;;;;;;20.60;3.88;;;;;;;8.07;nan;100342.00;4991718;28;20089;-49
2023/04/24 07:44:33;;;;;;;16.48;4.18;;;;;;;7.86;nan;100296.31;4991940;28;20093;-47
2023/04/24 07:46:58;;;;;;;15.45;4.28;;;;;;;8.13;nan;100363.66;4993151;28;20073;-50
2023/04/24 07:49:24;;;;;;;20.42;4.05;;;;;;;8.24;nan;100373.81;4992796;28;20560;-48
2023/04/24 07:51:50;;;;;;;16.63;5.15;;;;;;;8.26;nan;100374.63;4993126;28;20042;-46
2023/04/24 07:54:15;;;;;;;16.92;4.15;;;;;;;7.86;nan;100339.09;4992735;28;20030;-48
2023/04/24 07:56:43;;;;;;;16.92;4.55;;;;;;;7.77;nan;100325.41;4992184;28;20041;-46
2023/04/24 07:59:10;;;;;;;12.05;3.70;;;;;;;8.06;nan;100396.16;4992905;28;20031;-46
2023/04/24 08:01:35;;;;;;;17.65;4.93;;;;;;;7.98;nan;100397.31;4992823;28;20030;-46
2023/04/24 08:04:01;;;;;;;16.92;4.07;;;;;;;8.07;nan;100402.28;4991289;28;20177;-47
2023/04/24 08:06:30;;;;;;;15.82;3.95;;;;;;;7.82;nan;100358.44;5007875;28;20426;-46
2023/04/24 08:08:55;;;;;;;9.77;3.53;;;;;;;8.17;nan;100409.00;4992788;28;20121;-47
2023/04/24 08:11:21;;;;;;;16.75;3.55;;;;;;;8.27;nan;100420.91;4992614;28;20304;-48
2023/04/24 08:13:46;;;;;;;10.07;3.72;;;;;;;8.30;nan;100413.84;4992598;28;20462;-47
2023/04/24 08:16:12;;;;;;;13.80;3.40;;;;;;;8.12;nan;100403.00;4992712;28;20466;-47
2023/04/24 08:18:37;;;;;;;8.27;3.15;;;;;;;8.62;nan;100438.22;4992389;28;20098;-46
2023/04/24 08:21:03;;;;;;;9.55;3.13;;;;;;;8.33;nan;100395.41;4991365;28;20090;-44
2023/04/24 08:23:29;;;;;;;7.43;2.63;;;;;;;8.71;nan;100464.19;4992731;28;20367;-48
2023/04/24 08:25:54;;;;;;;8.00;2.70;;;;;;;8.56;nan;100425.31;4992227;28;20565;-46
2023/04/24 08:28:20;;;;;;;10.07;2.88;;;;;;;8.41;nan;100408.25;4992671;28;20122;-46
2023/04/24 08:30:47;;;;;;;9.60;2.70;;;;;;;8.38;nan;100403.97;4991364;28;20039;-46
2023/04/24 08:33:12;;;;;;;8.07;2.47;;;;;;;8.75;nan;100486.81;4992221;28;20034;-46
2023/04/24 08:35:38;;;;;;;5.95;2.30;;;;;;;8.40;nan;100427.56;4992453;28;20050;-46
2023/04/24 08:38:04;;;;;;;11.05;2.38;;;;;;;8.71;nan;100488.69;4992530;28;20045;-47
2023/04/24 08:40:30;;;;;;;9.90;2.65;;;;;;;8.54;nan;100477.84;4992304;28;20043;-46
2023/04/24 08:42:58;;;;;;;12.98;3.25;;;;;;;8.54;nan;100495.31;4992675;28;20141;-50
2023/04/24 08:45:24;;;;;;;5.88;2.53;;;;;;;8.53;nan;100506.72;4992380;28;20041;-46
2023/04/24 08:47:50;;;;;;;12.57;2.90;;;;;;;8.47;nan;100502.50;4991040;28;20125;-45
2023/04/24 08:50:17;;;;;;;10.48;2.35;;;;;;;8.09;nan;100443.28;4992318;28;20057;-46
2023/04/24 08:52:42;;;;;;;7.47;2.55;;;;;;;8.12;nan;100439.69;4992366;28;20043;-46
2023/04/24 08:55:08;;;;;;;9.85;2.47;;;;;;;8.66;nan;100505.47;4991739;28;20037;-44
2023/04/24 08:57:35;;;;;;;7.82;1.95;;;;;;;8.72;nan;100505.28;4989565;28;20081;-46
2023/04/24 09:00:01;;;;;;;7.55;2.00;;;;;;;8.88;nan;100509.16;4990601;28;20495;-45
2023/04/24 09:02:27;;;;;;;4.97;1.92;;;;;;;8.97;nan;100524.63;4991228;28;20088;-46
2023/04/24 09:04:53;;;;;;;3.35;1.33;;;;;;;8.60;nan;100459.28;4990960;28;20398;-48
2023/04/24 09:07:19;;;;;;;5.07;1.52;;;;;;;8.51;nan;100458.69;4990712;28;20034;-47
2023/04/24 09:09:45;;;;;;;8.07;2.05;;;;;;;8.76;nan;100536.63;4991634;28;20142;-47
2023/04/24 09:12:11;;;;;;;5.15;1.55;;;;;;;8.58;nan;100538.94;5009562;28;20058;-44
2023/04/24 09:14:39;;;;;;;12.48;1.80;;;;;;;8.17;nan;100482.41;4993294;28;20582;-46
2023/04/24 09:17:06;;;;;;;7.32;1.67;;;;;;;8.18;nan;100484.97;4994403;28;20042;-45
2023/04/24 09:19:31;;;;;;;4.95;2.15;;;;;;;8.32;nan;100474.09;4992639;28;20181;-45
2023/04/24 09:21:56;;;;;;;8.85;2.10;;;;;;;8.70;nan;100535.97;4994291;28;20541;-45
2023/04/24 09:24:22;;;;;;;8.32;1.75;;;;;;;8.78;nan;100533.97;4992884;28;20153;-43
2023/04/24 09:26:48;;;;;;;5.55;1.95;;;;;;;8.85;nan;100523.22;4993994;28;20030;-45
2023/04/24 09:29:18;;;;;;;7.57;1.17;;;;;;;8.96;nan;100539.50;4992876;28;20109;-45
2023/04/24 09:31:44;;;;;;;3.58;0.90;;;;;;;8.98;nan;100532.47;4994541;28;20125;-45
2023/04/24 09:34:09;;;;;;;7.53;1.80;;;;;;;9.12;nan;100552.16;4992188;28;20109;-46
2023/04/24 09:36:38;;;;;;;4.80;1.67;;;;;;;9.50;nan;100564.97;4993774;28;20105;-45
2023/04/24 09:39:05;;;;;;;4.50;1.00;;;;;;;9.54;nan;100522.75;4994052;28;20112;-45
2023/04/24 09:41:32;;;;;;;5.05;1.05;;;;;;;9.63;nan;100511.09;4992216;28;20474;-46
2023/04/24 09:44:10;;;;;;;6.30;1.48;;;;;;;9.79;nan;100524.56;4992489;28;20508;-45
2023/04/24 09:46:36;;;;;;;4.55;1.27;;;;;;;9.97;nan;100589.66;4993671;28;20096;-46
2023/04/24 09:49:10;;;;;;;7.35;1.63;;;;;;;8.90;nan;100460.94;4994509;28;20467;-46
2023/04/24 09:51:36;;;;;;;4.45;1.42;;;;;;;9.45;nan;100609.78;4995190;28;20425;-46
2023/04/24 09:54:03;;;;;;;7.50;2.03;;;;;;;8.88;nan;100533.63;4994965;28;20065;-48
2023/04/24 09:56:32;;;;;;;7.47;1.67;;;;;;;8.65;nan;100548.34;5010312;28;20050;-45
2023/04/24 09:59:05;;;;;;;5.00;1.60;;;;;;;8.87;nan;100618.53;4993897;28;20038;-46
2023/04/24 10:01:31;;;;;;;6.82;1.48;;;;;;;8.70;nan;100610.28;4993695;28;20482;-44
2023/04/24 10:03:57;;;;;;;7.63;1.83;;;;;;;8.20;nan;100548.69;4995122;28;20065;-46
2023/04/24 10:06:22;;;;;;;5.75;1.27;;;;;;;8.46;nan;100614.44;4995151;28;20455;-46
2023/04/24 10:08:48;;;;;;;5.07;0.90;;;;;;;8.51;nan;100616.09;4994421;28;20133;-45
2023/04/24 10:11:13;;;;;;;3.80;0.93;;;;;;;8.54;nan;100559.16;4994356;28;20061;-46
2023/04/24 10:13:40;;;;;;;4.40;1.02;;;;;;;8.68;nan;100546.50;4994247;28;20034;-44
2023/04/24 10:16:07;;;;;;;4.03;1.13;;;;;;;9.09;nan;100613.50;4980254;28;20122;-45
2023/04/24 10:18:32;;;;;;;4.20;1.20;;;;;;;9.25;nan;100625.25;4974396;28;20047;-44
2023/04/24 10:20:59;;;;;;;4.43;1.10;;;;;;;9.22;nan;100620.13;4973129;28;20080;-43
2023/04/24 10:23:25;;;;;;;4.65;1.33;;;;;;;8.83;nan;100545.19;4975341;28;20035;-44
2023/04/24 10:25:51;;;;;;;4.93;1.10;;;;;;;9.41;nan;100618.66;4975219;28;20057;-45
2023/04/24 10:28:18;;;;;;;4.47;1.40;;;;;;;9.42;nan;100582.75;4975129;28;20478;-44
2023/04/24 10:30:43;;;;;;;7.90;2.42;;;;;;;9.96;nan;100628.25;4975848;28;20097;-46
2023/04/24 10:33:08;;;;;;;5.50;1.50;;;;;;;10.11;nan;100567.25;4993332;28;20026;-45
2023/04/24 10:35:37;;;;;;;8.85;1.65;;;;;;;10.91;nan;100618.78;4993546;28;20133;-46
2023/04/24 10:38:08;;;;;;;7.28;2.35;;;;;;;10.96;nan;100634.41;4994448;28;20031;-44
2023/04/24 10:40:35;;;;;;;10.18;2.75;;;;;;;10.98;nan;100627.28;4994548;28;20388;-44
2023/04/24 10:43:11;;;;;;;9.18;2.17;;;;;;;10.67;nan;100590.72;4994309;28;20061;-44
2023/04/24 10:45:37;;;;;;;6.80;1.70;;;;;;;10.30;nan;100585.94;5002956;28;20065;-44
2023/04/24 10:48:05;;;;;;;5.32;2.10;;;;;;;10.35;nan;100646.25;4985627;28;20058;-44
2023/04/24 10:50:48;;;;;;;12.75;2.70;;;;;;;9.96;nan;100672.09;4993498;28;20097;-44
2023/04/24 10:53:19;;;;;;;7.22;1.58;;;;;;;9.51;nan;100648.13;4986863;28;20486;-44
2023/04/24 10:55:50;;;;;;;5.70;1.55;;;;;;;9.60;nan;100663.63;4991855;28;20097;-44
2023/04/24 10:58:16;;;;;;;8.95;1.45;;;;;;;9.49;nan;100605.25;4991976;28;20038;-45
2023/04/24 11:00:44;;;;;;;9.75;1.70;;;;;;;10.35;nan;100668.19;4981731;28;20058;-46
2023/04/24 11:03:29;;;;;;;4.78;1.25;;;;;;;11.32;nan;100677.81;4985426;28;20038;-46
2023/04/24 11:05:59;;;;;;;3.33;0.98;;;;;;;12.09;nan;100687.94;4991448;28;20040;-45
2023/04/24 11:08:32;;;;;;;7.25;1.33;;;;;;;12.26;nan;100663.47;4999007;28;20057;-44
2023/04/24 11:11:08;;;;;;;4.75;1.42;;;;;;;12.55;nan;100700.06;4992697;28;20038;-45
2023/04/24 11:14:08;;;;;;;3.17;1.10;;;;;;;12.81;nan;100698.97;4993898;28;20105;-46
2023/04/24 11:16:42;;;;;;;7.32;1.50;;;;;;;12.60;nan;100637.38;4949069;28;20055;-45
2023/04/24 11:19:11;;;;;;;5.80;1.83;;;;;;;12.62;nan;100696.25;4979466;28;20054;-45
2023/04/24 11:21:57;;;;;;;4.75;1.60;;;;;;;12.43;nan;100714.66;4984343;28;20066;-45
2023/04/24 11:24:39;;;;;;;4.63;1.70;;;;;;;12.76;nan;100693.88;4988417;28;20037;-45
2023/04/24 11:27:06;;;;;;;10.70;2.13;;;;;;;12.98;nan;100720.22;4989974;28;20050;-47
2023/04/24 11:29:46;;;;;;;6.00;1.42;;;;;;;12.80;nan;100716.59;4991306;28;20026;-45
2023/04/24 11:32:19;;;;;;;5.82;1.67;;;;;;;12.05;nan;100661.75;4986707;28;20034;-47
2023/04/24 11:35:08;;;;;;;10.60;1.73;;;;;;;12.09;nan;100664.19;4991245;28;20049;-48
2023/04/24 11:37:40;;;;;;;5.50;1.67;;;;;;;12.61;nan;100720.94;4991232;28;20464;-44
2023/04/24 11:40:07;;;;;;;9.00;2.50;;;;;;;12.15;nan;100671.84;4990004;28;20049;-44
2023/04/24 11:42:49;;;;;;;6.32;1.77;;;;;;;12.21;nan;100665.47;4990271;28;20061;-44
2023/04/24 11:45:20;;;;;;;7.40;2.05;;;;;;;12.07;nan;100673.97;4974338;28;20138;-46